createdAt,value
2017-06-27T00:00:23.504Z,11.16
2017-06-27T00:01:23.500Z,11.20
2017-06-27T00:02:17.569Z,11.21
2017-06-27T00:03:11.628Z,11.21
2017-06-27T00:04:05.615Z,11.29
2017-06-27T00:04:59.706Z,11.30
2017-06-27T00:05:53.732Z,11.29
2017-06-27T00:06:53.748Z,11.26
2017-06-27T00:07:54.789Z,11.22
2017-06-27T00:08:54.853Z,11.16
2017-06-27T00:09:49.846Z,11.09
2017-06-27T00:10:49.860Z,11.12
2017-06-27T00:11:49.882Z,11.07
2017-06-27T00:12:55.936Z,11.02
2017-06-27T00:13:50.968Z,11.00
2017-06-27T00:14:46.013Z,11.06
2017-06-27T00:15:46.010Z,11.04
2017-06-27T00:16:34.045Z,11.02
2017-06-27T00:17:22.130Z,10.95
2017-06-27T00:18:11.108Z,10.93
2017-06-27T00:18:59.213Z,10.84
2017-06-27T00:19:47.263Z,10.74
2017-06-27T00:20:35.313Z,10.65
2017-06-27T00:21:24.335Z,10.57
2017-06-27T00:22:12.408Z,10.50
2017-06-27T00:23:00.441Z,10.41
2017-06-27T00:23:54.499Z,10.36
2017-06-27T00:24:48.511Z,10.36
2017-06-27T00:25:48.532Z,10.35
2017-06-27T00:26:48.553Z,10.32
2017-06-27T00:27:43.608Z,10.30
2017-06-27T00:28:37.591Z,10.24
2017-06-27T00:29:37.633Z,10.29
2017-06-27T00:30:26.731Z,10.32
2017-06-27T00:31:20.707Z,10.28
2017-06-27T00:32:14.810Z,10.23
2017-06-27T00:33:08.806Z,10.17
2017-06-27T00:34:03.853Z,10.05
2017-06-27T00:34:57.908Z,9.98
2017-06-27T00:35:57.879Z,9.93
2017-06-27T00:36:51.987Z,9.93
2017-06-27T00:37:51.975Z,9.82
2017-06-27T00:38:47.004Z,9.76
2017-06-27T00:39:47.061Z,9.70
2017-06-27T00:40:41.085Z,9.67
2017-06-27T00:41:41.206Z,9.64
2017-06-27T00:42:41.150Z,9.61
2017-06-27T00:43:41.221Z,9.62
2017-06-27T00:44:36.259Z,9.67
2017-06-27T00:45:36.235Z,9.68
2017-06-27T00:46:30.328Z,9.64
2017-06-27T00:47:25.323Z,9.63
2017-06-27T00:48:26.383Z,9.62
2017-06-27T00:49:26.429Z,9.60
2017-06-27T00:50:15.420Z,9.61
2017-06-27T00:51:04.475Z,9.60
2017-06-27T00:51:52.504Z,9.57
2017-06-27T00:52:40.556Z,9.54
2017-06-27T00:53:40.592Z,9.52
2017-06-27T00:54:35.605Z,9.62
2017-06-27T00:55:35.711Z,9.72
2017-06-27T00:56:30.729Z,9.76
2017-06-27T00:57:25.691Z,9.84
2017-06-27T00:58:32.053Z,9.86
2017-06-27T00:59:25.882Z,9.90
2017-06-27T01:00:25.824Z,9.87
2017-06-27T01:01:20.944Z,9.83
2017-06-27T01:02:14.914Z,9.77
2017-06-27T01:03:09.915Z,9.70
2017-06-27T01:04:09.958Z,9.70
2017-06-27T01:05:09.975Z,9.74
2017-06-27T01:06:10.145Z,9.76
2017-06-27T01:07:04.072Z,9.88
2017-06-27T01:08:04.147Z,9.88
2017-06-27T01:08:59.103Z,9.87
2017-06-27T01:09:54.178Z,9.86
2017-06-27T01:10:54.178Z,9.91
2017-06-27T01:11:49.508Z,9.94
2017-06-27T01:12:49.221Z,9.91
2017-06-27T01:13:49.347Z,9.90
2017-06-27T01:14:49.341Z,9.87
2017-06-27T01:15:43.438Z,9.85
2017-06-27T01:16:43.597Z,9.91
2017-06-27T01:17:31.450Z,9.93
2017-06-27T01:18:20.492Z,9.87
2017-06-27T01:19:21.530Z,9.86
2017-06-27T01:20:15.574Z,9.81
2017-06-27T01:21:15.618Z,9.74
2017-06-27T01:22:10.628Z,9.66
2017-06-27T01:23:05.618Z,9.62
2017-06-27T01:24:05.633Z,9.57
2017-06-27T01:25:00.735Z,9.52
2017-06-27T01:26:00.717Z,9.54
2017-06-27T01:27:00.830Z,9.56
2017-06-27T01:28:00.809Z,9.54
2017-06-27T01:28:54.835Z,9.60
2017-06-27T01:29:48.870Z,9.62
2017-06-27T01:30:48.900Z,9.61
2017-06-27T01:31:43.089Z,9.66
2017-06-27T01:32:32.026Z,9.70
2017-06-27T01:33:27.032Z,9.74
2017-06-27T01:34:27.042Z,9.75
2017-06-27T01:35:22.101Z,9.80
2017-06-27T01:36:17.133Z,9.82
2017-06-27T01:37:11.158Z,9.86
2017-06-27T01:38:05.252Z,9.89
2017-06-27T01:39:05.194Z,9.94
2017-06-27T01:39:54.255Z,9.93
2017-06-27T01:40:42.330Z,9.94
2017-06-27T01:41:42.318Z,10.00
2017-06-27T01:42:31.633Z,10.02
2017-06-27T01:43:25.428Z,10.07
2017-06-27T01:44:20.476Z,10.18
2017-06-27T01:45:08.523Z,10.18
2017-06-27T01:45:57.505Z,10.24
2017-06-27T01:46:57.561Z,10.26
2017-06-27T01:47:52.578Z,10.30
2017-06-27T01:48:46.679Z,10.32
2017-06-27T01:49:46.670Z,10.26
2017-06-27T01:50:46.693Z,10.29
2017-06-27T01:51:41.719Z,10.26
2017-06-27T01:52:36.768Z,10.24
2017-06-27T01:53:37.792Z,10.21
2017-06-27T01:54:37.814Z,10.26
2017-06-27T01:55:26.864Z,10.25
2017-06-27T01:56:21.926Z,10.22
2017-06-27T01:57:21.935Z,10.23
2017-06-27T01:58:17.010Z,10.23
2017-06-27T01:59:17.020Z,10.30
2017-06-27T02:00:11.034Z,10.32
2017-06-27T02:01:12.051Z,10.28
2017-06-27T02:02:06.083Z,10.25
2017-06-27T02:02:54.166Z,10.20
2017-06-27T02:03:48.210Z,10.12
2017-06-27T02:04:42.205Z,10.06
2017-06-27T02:05:42.316Z,9.99
2017-06-27T02:06:36.297Z,9.97
2017-06-27T02:07:36.353Z,9.90
2017-06-27T02:08:42.314Z,9.82
2017-06-27T02:09:37.394Z,9.76
2017-06-27T02:10:31.726Z,9.68
2017-06-27T02:11:31.476Z,9.63
2017-06-27T02:12:31.514Z,9.54
2017-06-27T02:13:26.542Z,9.47
2017-06-27T02:14:20.569Z,9.40
2017-06-27T02:15:20.554Z,9.34
2017-06-27T02:16:09.630Z,9.34
2017-06-27T02:16:57.700Z,9.28
2017-06-27T02:17:46.719Z,9.25
2017-06-27T02:18:34.744Z,9.20
2017-06-27T02:19:23.806Z,9.17
2017-06-27T02:20:18.838Z,9.16
2017-06-27T02:21:18.875Z,9.21
2017-06-27T02:22:12.931Z,9.19
2017-06-27T02:23:01.917Z,9.17
2017-06-27T02:23:49.989Z,9.12
2017-06-27T02:24:38.034Z,9.06
2017-06-27T02:25:32.098Z,9.00
2017-06-27T02:26:26.112Z,8.98
2017-06-27T02:27:21.240Z,8.92
2017-06-27T02:28:21.277Z,8.87
2017-06-27T02:29:09.205Z,8.80
2017-06-27T02:29:57.242Z,8.78
2017-06-27T02:30:45.314Z,8.76
2017-06-27T02:31:33.379Z,8.78
2017-06-27T02:32:21.389Z,8.77
2017-06-27T02:33:15.406Z,8.76
2017-06-27T02:34:04.515Z,8.72
2017-06-27T02:34:52.539Z,8.76
2017-06-27T02:35:47.577Z,8.83
2017-06-27T02:36:41.637Z,8.87
2017-06-27T02:37:42.627Z,8.85
2017-06-27T02:38:42.618Z,8.86
2017-06-27T02:39:43.070Z,8.84
2017-06-27T02:40:36.735Z,8.79
2017-06-27T02:41:30.720Z,8.82
2017-06-27T02:42:24.811Z,8.82
2017-06-27T02:43:24.845Z,8.80
2017-06-27T02:44:13.860Z,8.78
2017-06-27T02:45:02.229Z,8.78
2017-06-27T02:45:56.945Z,8.80
2017-06-27T02:46:51.961Z,8.79
2017-06-27T02:47:45.994Z,8.74
2017-06-27T02:48:52.055Z,8.70
2017-06-27T02:49:52.073Z,8.69
2017-06-27T02:50:47.151Z,8.66
2017-06-27T02:51:41.130Z,8.68
2017-06-27T02:52:35.135Z,8.67
2017-06-27T02:53:29.217Z,8.67
2017-06-27T02:54:35.257Z,8.62
2017-06-27T02:55:35.281Z,8.63
2017-06-27T02:56:35.322Z,8.63
2017-06-27T02:57:29.326Z,8.62
2017-06-27T02:58:18.384Z,8.62
2017-06-27T02:59:19.401Z,8.64
2017-06-27T03:00:13.471Z,8.67
2017-06-27T03:01:13.478Z,8.66
2017-06-27T03:02:08.496Z,8.66
2017-06-27T03:02:57.514Z,8.65
2017-06-27T03:03:46.600Z,8.70
2017-06-27T03:04:34.604Z,8.70
2017-06-27T03:05:22.677Z,8.64
2017-06-27T03:06:17.714Z,8.68
2017-06-27T03:07:23.720Z,8.64
2017-06-27T03:08:18.765Z,8.58
2017-06-27T03:09:12.799Z,8.56
2017-06-27T03:10:13.816Z,8.49
2017-06-27T03:11:08.846Z,8.47
2017-06-27T03:12:02.890Z,8.46
2017-06-27T03:13:03.981Z,8.47
2017-06-27T03:14:04.016Z,8.43
2017-06-27T03:14:59.018Z,8.46
2017-06-27T03:15:54.033Z,8.53
2017-06-27T03:16:54.101Z,8.56
2017-06-27T03:17:49.090Z,8.57
2017-06-27T03:18:37.194Z,8.64
2017-06-27T03:19:31.228Z,8.66
2017-06-27T03:20:25.225Z,8.70
2017-06-27T03:21:25.291Z,8.67
2017-06-27T03:22:25.312Z,8.63
2017-06-27T03:23:25.340Z,8.71
2017-06-27T03:24:14.418Z,8.69
2017-06-27T03:25:02.420Z,8.74
2017-06-27T03:25:50.466Z,8.72
2017-06-27T03:26:45.510Z,8.73
2017-06-27T03:27:34.525Z,8.76
2017-06-27T03:28:28.565Z,8.67
2017-06-27T03:29:16.667Z,8.73
2017-06-27T03:30:04.633Z,8.69
2017-06-27T03:30:58.672Z,8.72
2017-06-27T03:31:58.709Z,8.76
2017-06-27T03:32:53.749Z,8.80
2017-06-27T03:33:47.803Z,8.86
2017-06-27T03:34:36.813Z,8.82
2017-06-27T03:35:31.905Z,8.88
2017-06-27T03:36:31.879Z,8.85
2017-06-27T03:37:26.921Z,8.90
2017-06-27T03:38:21.998Z,8.92
2017-06-27T03:39:16.019Z,9.00
2017-06-27T03:40:05.057Z,9.00
2017-06-27T03:40:54.156Z,9.00
2017-06-27T03:41:43.134Z,9.03
2017-06-27T03:42:37.196Z,9.02
2017-06-27T03:43:32.221Z,9.02
2017-06-27T03:44:32.267Z,9.03
2017-06-27T03:45:22.117Z,9.04
2017-06-27T03:46:22.331Z,9.12
2017-06-27T03:47:16.394Z,9.15
2017-06-27T03:48:16.426Z,9.16
2017-06-27T03:49:17.426Z,9.20
2017-06-27T03:50:12.515Z,9.25
2017-06-27T03:51:06.817Z,9.30
2017-06-27T03:52:06.517Z,9.32
2017-06-27T03:53:00.569Z,9.36
2017-06-27T03:53:55.617Z,9.38
2017-06-27T03:54:55.642Z,9.46
2017-06-27T03:55:50.690Z,9.52
2017-06-27T03:56:45.730Z,9.54
2017-06-27T03:57:33.775Z,9.53
2017-06-27T03:58:28.083Z,9.66
2017-06-27T03:59:16.829Z,9.70
2017-06-27T04:00:10.917Z,9.70
2017-06-27T04:01:05.025Z,9.71
2017-06-27T04:02:05.810Z,9.75
2017-06-27T04:02:59.984Z,9.76
2017-06-27T04:03:54.042Z,9.82
2017-06-27T04:04:43.079Z,9.77
2017-06-27T04:05:38.097Z,9.82
2017-06-27T04:06:38.128Z,9.88
2017-06-27T04:07:33.195Z,9.94
2017-06-27T04:08:28.258Z,10.06
2017-06-27T04:09:17.215Z,10.01
2017-06-27T04:10:17.308Z,10.09
2017-06-27T04:11:06.622Z,10.12
2017-06-27T04:12:01.350Z,10.08
2017-06-27T04:12:50.420Z,10.19
2017-06-27T04:13:38.472Z,10.26
2017-06-27T04:14:33.493Z,10.20
2017-06-27T04:15:34.533Z,10.20
2017-06-27T04:16:28.607Z,10.20
2017-06-27T04:17:22.578Z,10.17
2017-06-27T04:18:22.687Z,10.18
2017-06-27T04:19:22.707Z,10.30
2017-06-27T04:20:10.712Z,10.34
2017-06-27T04:20:58.808Z,10.34
2017-06-27T04:21:52.782Z,10.30
2017-06-27T04:22:41.872Z,10.37
2017-06-27T04:23:36.887Z,10.42
2017-06-27T04:24:25.925Z,10.42
2017-06-27T04:25:19.960Z,10.46
2017-06-27T04:26:20.016Z,10.52
2017-06-27T04:27:09.006Z,10.55
2017-06-27T04:28:09.071Z,10.64
2017-06-27T04:29:09.121Z,10.70
2017-06-27T04:30:04.128Z,10.76
2017-06-27T04:31:04.475Z,10.84
2017-06-27T04:31:59.243Z,10.89
2017-06-27T04:32:54.225Z,10.94
2017-06-27T04:33:54.296Z,10.98
2017-06-27T04:34:48.384Z,11.04
2017-06-27T04:35:48.420Z,11.08
2017-06-27T04:36:48.407Z,11.10
2017-06-27T04:37:42.439Z,11.12
2017-06-27T04:38:43.463Z,11.17
2017-06-27T04:39:32.535Z,11.18
2017-06-27T04:40:26.572Z,11.18
2017-06-27T04:41:21.571Z,11.27
2017-06-27T04:42:21.613Z,11.29
2017-06-27T04:43:16.623Z,11.34
2017-06-27T04:44:11.703Z,11.38
2017-06-27T04:45:11.693Z,11.37
2017-06-27T04:46:07.117Z,11.41
2017-06-27T04:47:01.850Z,11.46
2017-06-27T04:47:55.893Z,11.50
2017-06-27T04:48:49.929Z,11.54
2017-06-27T04:49:43.909Z,11.59
2017-06-27T04:50:43.976Z,11.58
2017-06-27T04:51:38.084Z,11.62
2017-06-27T04:52:32.070Z,11.64
2017-06-27T04:53:26.051Z,11.58
2017-06-27T04:54:21.224Z,11.65
2017-06-27T04:55:21.143Z,11.60
2017-06-27T04:56:16.251Z,11.70
2017-06-27T04:57:11.286Z,11.72
2017-06-27T04:58:05.271Z,11.78
2017-06-27T04:59:05.348Z,11.86
2017-06-27T05:00:00.379Z,11.92
2017-06-27T05:00:54.436Z,11.94
2017-06-27T05:01:54.418Z,11.94
2017-06-27T05:02:48.487Z,11.95
2017-06-27T05:03:42.514Z,11.94
2017-06-27T05:04:36.576Z,12.07
2017-06-27T05:05:30.603Z,12.10
2017-06-27T05:06:25.956Z,12.18
2017-06-27T05:07:20.710Z,12.16
2017-06-27T05:08:14.881Z,12.31
2017-06-27T05:09:03.802Z,12.35
2017-06-27T05:09:58.796Z,12.42
2017-06-27T05:10:53.875Z,12.34
2017-06-27T05:11:47.933Z,12.36
2017-06-27T05:12:47.916Z,12.39
2017-06-27T05:13:43.011Z,12.42
2017-06-27T05:14:32.051Z,12.46
2017-06-27T05:15:21.096Z,12.52
2017-06-27T05:16:16.102Z,12.62
2017-06-27T05:17:17.127Z,12.90
2017-06-27T05:18:12.210Z,12.99
2017-06-27T05:19:01.250Z,13.14
2017-06-27T05:19:55.326Z,13.20
2017-06-27T05:20:49.284Z,13.23
2017-06-27T05:21:44.387Z,13.36
2017-06-27T05:22:44.430Z,13.47
2017-06-27T05:23:44.460Z,13.64
2017-06-27T05:24:44.611Z,13.69
2017-06-27T05:25:39.523Z,13.70
2017-06-27T05:26:34.571Z,13.80
2017-06-27T05:27:28.633Z,13.91
2017-06-27T05:28:17.646Z,13.90
2017-06-27T05:29:05.714Z,13.92
2017-06-27T05:30:05.753Z,14.19
2017-06-27T05:31:00.768Z,14.31
2017-06-27T05:31:55.875Z,14.48
2017-06-27T05:32:55.847Z,14.62
2017-06-27T05:33:50.921Z,14.76
2017-06-27T05:34:45.975Z,14.79
2017-06-27T05:35:46.003Z,14.71
2017-06-27T05:36:41.049Z,14.44
2017-06-27T05:37:41.088Z,14.42
2017-06-27T05:38:35.132Z,14.42
2017-06-27T05:39:29.118Z,14.33
2017-06-27T05:40:18.236Z,14.36
2017-06-27T05:41:13.616Z,14.41
2017-06-27T05:42:13.298Z,14.47
2017-06-27T05:43:08.363Z,14.40
2017-06-27T05:43:57.431Z,14.62
2017-06-27T05:44:51.446Z,14.84
2017-06-27T05:45:52.520Z,15.23
2017-06-27T05:46:53.537Z,15.64
2017-06-27T05:47:42.572Z,15.73
2017-06-27T05:48:37.640Z,15.56
2017-06-27T05:49:31.694Z,15.50
2017-06-27T05:50:25.999Z,15.44
2017-06-27T05:51:20.735Z,15.29
2017-06-27T05:52:09.844Z,15.45
2017-06-27T05:53:04.811Z,15.43
2017-06-27T05:53:58.908Z,15.32
2017-06-27T05:54:53.963Z,15.15
2017-06-27T05:55:54.032Z,15.28
2017-06-27T05:56:54.031Z,15.26
2017-06-27T05:57:54.122Z,15.25
2017-06-27T05:58:54.142Z,15.30
2017-06-27T05:59:54.195Z,15.43
2017-06-27T06:00:54.278Z,15.32
2017-06-27T06:01:54.267Z,15.32
2017-06-27T06:02:48.369Z,15.23
2017-06-27T06:03:43.330Z,15.24
2017-06-27T06:04:37.405Z,15.26
2017-06-27T06:05:37.423Z,15.44
2017-06-27T06:06:31.505Z,15.36
2017-06-27T06:07:25.518Z,15.16
2017-06-27T06:08:25.605Z,15.09
2017-06-27T06:09:19.654Z,14.89
2017-06-27T06:10:19.671Z,14.84
2017-06-27T06:11:13.968Z,14.68
2017-06-27T06:12:13.693Z,14.60
2017-06-27T06:13:07.828Z,14.58
2017-06-27T06:14:08.816Z,14.58
2017-06-27T06:15:03.002Z,14.63
2017-06-27T06:15:50.963Z,14.65
2017-06-27T06:16:46.007Z,14.72
2017-06-27T06:17:47.020Z,14.88
2017-06-27T06:18:42.090Z,14.90
2017-06-27T06:19:37.125Z,14.86
2017-06-27T06:20:32.146Z,14.88
2017-06-27T06:21:21.221Z,14.92
2017-06-27T06:22:16.238Z,15.05
2017-06-27T06:23:16.338Z,15.22
2017-06-27T06:24:10.352Z,15.16
2017-06-27T06:25:10.408Z,15.16
2017-06-27T06:26:05.735Z,15.28
2017-06-27T06:27:05.458Z,15.36
2017-06-27T06:27:54.505Z,15.43
2017-06-27T06:28:43.586Z,15.52
2017-06-27T06:29:32.602Z,15.54
2017-06-27T06:30:26.665Z,15.51
2017-06-27T06:31:16.045Z,15.66
2017-06-27T06:32:10.746Z,15.89
2017-06-27T06:33:10.872Z,16.07
2017-06-27T06:34:04.850Z,15.97
2017-06-27T06:34:58.908Z,15.96
2017-06-27T06:35:58.941Z,15.90
2017-06-27T06:36:52.996Z,15.85
2017-06-27T06:37:47.021Z,15.95
2017-06-27T06:38:47.076Z,16.02
2017-06-27T06:39:41.126Z,16.12
2017-06-27T06:40:42.145Z,16.40
2017-06-27T06:41:37.199Z,16.77
2017-06-27T06:42:26.307Z,17.00
2017-06-27T06:43:21.303Z,17.63
2017-06-27T06:44:15.468Z,18.14
2017-06-27T06:45:10.434Z,18.48
2017-06-27T06:46:10.788Z,18.52
2017-06-27T06:47:04.494Z,18.52
2017-06-27T06:48:04.602Z,18.76
2017-06-27T06:48:53.568Z,18.96
2017-06-27T06:49:47.606Z,19.22
2017-06-27T06:50:47.642Z,19.23
2017-06-27T06:51:36.751Z,18.66
2017-06-27T06:52:36.809Z,18.76
2017-06-27T06:53:36.842Z,18.77
2017-06-27T06:54:25.904Z,18.67
2017-06-27T06:55:26.923Z,18.60
2017-06-27T06:56:21.115Z,18.07
2017-06-27T06:57:10.034Z,17.92
2017-06-27T06:58:04.098Z,17.76
2017-06-27T06:59:04.166Z,17.60
2017-06-27T06:59:58.168Z,17.58
2017-06-27T07:00:58.245Z,17.64
2017-06-27T07:01:52.289Z,17.55
2017-06-27T07:02:52.308Z,17.48
2017-06-27T07:03:47.362Z,17.35
2017-06-27T07:04:41.461Z,17.14
2017-06-27T07:05:41.500Z,16.91
2017-06-27T07:06:36.541Z,16.87
2017-06-27T07:07:30.563Z,16.75
2017-06-27T07:08:24.629Z,16.74
2017-06-27T07:09:24.658Z,16.87
2017-06-27T07:10:24.914Z,16.76
2017-06-27T07:11:18.919Z,16.94
2017-06-27T07:12:12.812Z,17.14
2017-06-27T07:13:06.869Z,16.92
2017-06-27T07:14:07.938Z,16.98
2017-06-27T07:15:02.969Z,17.01
2017-06-27T07:15:57.046Z,16.88
2017-06-27T07:16:57.025Z,16.92
2017-06-27T07:17:51.108Z,16.96
2017-06-27T07:18:45.104Z,17.04
2017-06-27T07:19:46.265Z,16.86
2017-06-27T07:20:46.282Z,16.84
2017-06-27T07:21:41.343Z,16.84
2017-06-27T07:22:35.330Z,16.94
2017-06-27T07:23:30.411Z,17.00
2017-06-27T07:24:24.432Z,16.83
2017-06-27T07:25:24.475Z,16.88
2017-06-27T07:26:18.822Z,16.83
2017-06-27T07:27:19.854Z,17.01
2017-06-27T07:28:19.623Z,17.31
2017-06-27T07:29:13.641Z,17.36
2017-06-27T07:30:13.726Z,17.42
2017-06-27T07:31:08.069Z,17.32
2017-06-27T07:32:02.848Z,17.27
2017-06-27T07:33:03.091Z,17.33
2017-06-27T07:33:56.938Z,17.48
2017-06-27T07:34:51.937Z,17.71
2017-06-27T07:35:41.009Z,17.76
2017-06-27T07:36:35.020Z,17.61
2017-06-27T07:37:35.101Z,17.74
2017-06-27T07:38:30.700Z,17.86
2017-06-27T07:39:19.187Z,18.26
2017-06-27T07:40:14.208Z,18.63
2017-06-27T07:41:02.337Z,19.02
2017-06-27T07:41:56.316Z,19.31
2017-06-27T07:42:50.410Z,19.31
2017-06-27T07:43:40.278Z,19.00
2017-06-27T07:44:39.537Z,18.84
2017-06-27T07:45:33.600Z,18.72
2017-06-27T07:46:33.826Z,18.78
2017-06-27T07:47:27.629Z,18.72
2017-06-27T07:48:21.705Z,18.46
2017-06-27T07:49:10.732Z,18.37
2017-06-27T07:50:04.820Z,18.56
2017-06-27T07:51:04.828Z,18.24
2017-06-27T07:52:04.881Z,18.14
2017-06-27T07:52:59.940Z,17.95
2017-06-27T07:54:00.019Z,17.74
2017-06-27T07:54:55.079Z,17.68
2017-06-27T07:55:49.083Z,17.61
2017-06-27T07:56:49.388Z,17.57
2017-06-27T07:57:38.222Z,17.52
2017-06-27T07:58:33.224Z,17.52
2017-06-27T07:59:33.303Z,17.66
2017-06-27T08:00:27.339Z,17.65
2017-06-27T08:01:22.373Z,17.76
2017-06-27T08:02:17.449Z,17.62
2017-06-27T08:03:11.541Z,17.56
2017-06-27T08:04:06.520Z,17.56
2017-06-27T08:04:55.631Z,17.68
2017-06-27T08:05:43.679Z,17.76
2017-06-27T08:06:44.730Z,17.90
2017-06-27T08:07:38.758Z,18.02
2017-06-27T08:08:32.804Z,18.13
2017-06-27T08:09:20.822Z,18.24
2017-06-27T08:10:14.897Z,18.36
2017-06-27T08:11:10.082Z,18.24
2017-06-27T08:12:04.001Z,18.38
2017-06-27T08:12:59.053Z,18.50
2017-06-27T08:13:47.112Z,18.70
2017-06-27T08:14:36.142Z,18.72
2017-06-27T08:15:31.233Z,18.78
2017-06-27T08:16:20.472Z,18.78
2017-06-27T08:17:15.312Z,19.02
2017-06-27T08:18:04.347Z,19.16
2017-06-27T08:18:59.441Z,19.20
2017-06-27T08:19:53.453Z,19.31
2017-06-27T08:20:48.475Z,19.26
2017-06-27T08:21:36.572Z,19.04
2017-06-27T08:22:30.598Z,18.90
2017-06-27T08:23:30.665Z,18.64
2017-06-27T08:24:24.714Z,18.40
2017-06-27T08:25:19.767Z,18.35
2017-06-27T08:26:15.113Z,18.52
2017-06-27T08:27:04.123Z,18.48
2017-06-27T08:27:57.915Z,18.51
2017-06-27T08:28:57.978Z,18.36
2017-06-27T08:29:51.997Z,18.44
2017-06-27T08:30:47.038Z,18.63
2017-06-27T08:31:41.104Z,18.89
2017-06-27T08:32:35.185Z,18.92
2017-06-27T08:33:35.215Z,19.11
2017-06-27T08:34:30.255Z,19.30
2017-06-27T08:35:18.326Z,19.34
2017-06-27T08:36:18.631Z,19.26
2017-06-27T08:37:13.385Z,19.14
2017-06-27T08:38:07.494Z,18.93
2017-06-27T08:39:07.521Z,18.90
2017-06-27T08:39:56.567Z,18.93
2017-06-27T08:40:56.624Z,19.00
2017-06-27T08:41:50.960Z,19.06
2017-06-27T08:42:38.740Z,19.08
2017-06-27T08:43:34.194Z,19.08
2017-06-27T08:44:28.799Z,18.98
2017-06-27T08:45:22.852Z,19.04
2017-06-27T08:46:18.204Z,19.07
2017-06-27T08:47:13.014Z,19.07
2017-06-27T08:48:07.006Z,19.10
2017-06-27T08:49:01.104Z,19.16
2017-06-27T08:49:56.268Z,19.23
2017-06-27T08:50:56.257Z,19.53
2017-06-27T08:51:51.264Z,19.74
2017-06-27T08:52:45.336Z,20.03
2017-06-27T08:53:45.294Z,20.28
2017-06-27T08:54:40.412Z,20.49
2017-06-27T08:55:29.397Z,20.15
2017-06-27T08:56:29.530Z,20.03
2017-06-27T08:57:23.701Z,20.32
2017-06-27T08:58:23.591Z,20.57
2017-06-27T08:59:17.612Z,20.74
2017-06-27T09:00:07.021Z,20.84
2017-06-27T09:01:06.769Z,20.94
2017-06-27T09:02:01.842Z,20.74
2017-06-27T09:02:55.878Z,20.60
2017-06-27T09:03:43.907Z,19.85
2017-06-27T09:04:32.981Z,19.71
2017-06-27T09:05:27.292Z,19.67
2017-06-27T09:06:21.339Z,19.50
2017-06-27T09:07:16.252Z,19.60
2017-06-27T09:08:10.334Z,19.64
2017-06-27T09:09:05.214Z,19.70
2017-06-27T09:09:59.520Z,19.70
2017-06-27T09:10:48.366Z,19.61
2017-06-27T09:11:36.394Z,19.36
2017-06-27T09:12:31.481Z,19.26
2017-06-27T09:13:31.505Z,19.27
2017-06-27T09:14:26.574Z,19.24
2017-06-27T09:15:20.621Z,19.17
2017-06-27T09:16:20.670Z,19.32
2017-06-27T09:17:14.700Z,19.42
2017-06-27T09:18:14.767Z,19.39
2017-06-27T09:19:03.895Z,19.40
2017-06-27T09:19:57.940Z,19.32
2017-06-27T09:20:57.915Z,19.30
2017-06-27T09:21:46.992Z,19.16
2017-06-27T09:22:42.039Z,19.11
2017-06-27T09:23:42.121Z,19.18
2017-06-27T09:24:31.128Z,19.31
2017-06-27T09:25:25.200Z,19.36
2017-06-27T09:26:25.199Z,19.25
2017-06-27T09:27:19.326Z,19.32
2017-06-27T09:28:19.338Z,19.44
2017-06-27T09:29:13.390Z,19.55
2017-06-27T09:30:14.403Z,19.76
2017-06-27T09:31:14.787Z,19.76
2017-06-27T09:32:09.545Z,19.94
2017-06-27T09:33:03.624Z,20.10
2017-06-27T09:33:58.630Z,20.15
2017-06-27T09:34:52.736Z,20.02
2017-06-27T09:35:41.737Z,20.07
2017-06-27T09:36:36.783Z,20.05
2017-06-27T09:37:25.881Z,20.20
2017-06-27T09:38:25.887Z,20.08
2017-06-27T09:39:20.052Z,19.81
2017-06-27T09:40:20.022Z,19.58
2017-06-27T09:41:14.309Z,19.65
2017-06-27T09:42:03.115Z,19.69
2017-06-27T09:43:03.129Z,19.64
2017-06-27T09:43:57.229Z,19.67
2017-06-27T09:44:46.280Z,19.62
2017-06-27T09:45:40.321Z,19.62
2017-06-27T09:46:34.481Z,19.70
2017-06-27T09:47:28.443Z,19.64
2017-06-27T09:48:22.508Z,19.57
2017-06-27T09:49:16.619Z,19.47
2017-06-27T09:50:10.585Z,19.57
2017-06-27T09:51:04.827Z,19.50
2017-06-27T09:51:58.699Z,19.46
2017-06-27T09:52:53.718Z,19.48
2017-06-27T09:53:47.839Z,19.64
2017-06-27T09:54:47.825Z,19.51
2017-06-27T09:55:43.041Z,19.32
2017-06-27T09:56:42.902Z,19.31
2017-06-27T09:57:43.035Z,19.51
2017-06-27T09:58:37.016Z,19.77
2017-06-27T09:59:32.128Z,19.94
2017-06-27T10:00:26.156Z,19.90
2017-06-27T10:01:20.462Z,19.88
2017-06-27T10:02:14.286Z,19.94
2017-06-27T10:03:03.331Z,19.91
2017-06-27T10:03:58.344Z,19.98
2017-06-27T10:04:52.401Z,20.16
2017-06-27T10:05:47.483Z,20.30
2017-06-27T10:06:42.523Z,20.44
2017-06-27T10:07:30.606Z,20.39
2017-06-27T10:08:25.640Z,20.38
2017-06-27T10:09:26.920Z,20.30
2017-06-27T10:10:21.713Z,20.29
2017-06-27T10:11:17.077Z,20.49
2017-06-27T10:12:10.835Z,20.61
2017-06-27T10:13:10.880Z,20.60
2017-06-27T10:13:58.921Z,20.41
2017-06-27T10:14:59.989Z,20.37
2017-06-27T10:15:48.029Z,20.24
2017-06-27T10:16:37.076Z,20.25
2017-06-27T10:17:26.319Z,20.33
2017-06-27T10:18:21.252Z,20.42
2017-06-27T10:19:09.509Z,20.27
2017-06-27T10:19:58.315Z,20.27
2017-06-27T10:20:52.328Z,20.54
2017-06-27T10:21:46.748Z,20.76
2017-06-27T10:22:35.472Z,20.96
2017-06-27T10:23:35.620Z,21.00
2017-06-27T10:24:29.555Z,21.12
2017-06-27T10:25:18.608Z,20.84
2017-06-27T10:26:12.964Z,20.80
2017-06-27T10:27:00.769Z,20.91
2017-06-27T10:27:54.792Z,20.71
2017-06-27T10:28:48.842Z,20.75
2017-06-27T10:29:42.941Z,20.80
2017-06-27T10:30:37.979Z,21.10
2017-06-27T10:31:27.035Z,21.31
2017-06-27T10:32:16.060Z,21.60
2017-06-27T10:33:10.103Z,21.62
2017-06-27T10:34:05.167Z,21.36
2017-06-27T10:34:59.244Z,21.16
2017-06-27T10:35:53.315Z,20.90
2017-06-27T10:36:47.314Z,21.13
2017-06-27T10:37:41.498Z,21.48
2017-06-27T10:38:35.465Z,21.65
2017-06-27T10:39:30.541Z,21.72
2017-06-27T10:40:30.710Z,21.40
2017-06-27T10:41:30.609Z,21.42
2017-06-27T10:42:30.669Z,21.51
2017-06-27T10:43:25.707Z,21.60
2017-06-27T10:44:13.829Z,21.64
2017-06-27T10:45:02.838Z,21.72
2017-06-27T10:45:57.907Z,21.45
2017-06-27T10:46:52.122Z,21.40
2017-06-27T10:47:53.067Z,21.24
2017-06-27T10:48:48.054Z,21.07
2017-06-27T10:49:42.140Z,21.03
2017-06-27T10:50:36.151Z,21.06
2017-06-27T10:51:36.460Z,21.00
2017-06-27T10:52:36.239Z,20.97
2017-06-27T10:53:36.339Z,20.96
2017-06-27T10:54:36.429Z,20.86
2017-06-27T10:55:36.449Z,21.04
2017-06-27T10:56:36.472Z,20.96
2017-06-27T10:57:36.590Z,21.04
2017-06-27T10:58:30.789Z,20.98
2017-06-27T10:59:31.592Z,21.00
2017-06-27T11:00:26.727Z,21.08
2017-06-27T11:01:22.026Z,20.99
2017-06-27T11:02:17.065Z,20.99
2017-06-27T11:03:10.828Z,20.88
2017-06-27T11:04:05.972Z,20.83
2017-06-27T11:05:05.935Z,20.58
2017-06-27T11:06:01.230Z,20.44
2017-06-27T11:06:56.208Z,20.47
2017-06-27T11:07:45.075Z,20.28
2017-06-27T11:08:39.143Z,20.34
2017-06-27T11:09:34.193Z,20.42
2017-06-27T11:10:23.264Z,20.52
2017-06-27T11:11:18.662Z,20.58
2017-06-27T11:12:06.532Z,20.69
2017-06-27T11:13:00.443Z,20.60
2017-06-27T11:13:54.515Z,20.67
2017-06-27T11:14:48.549Z,20.66
2017-06-27T11:15:48.629Z,20.54
2017-06-27T11:16:43.911Z,20.58
2017-06-27T11:17:38.003Z,20.68
2017-06-27T11:18:37.731Z,20.84
2017-06-27T11:19:32.806Z,21.07
2017-06-27T11:20:27.835Z,21.15
2017-06-27T11:21:23.108Z,21.33
2017-06-27T11:22:17.516Z,21.44
2017-06-27T11:23:12.000Z,21.50
2017-06-27T11:24:06.034Z,21.54
2017-06-27T11:25:00.118Z,21.21
2017-06-27T11:25:54.153Z,21.26
2017-06-27T11:26:43.226Z,21.09
2017-06-27T11:27:32.322Z,20.99
2017-06-27T11:28:32.316Z,21.04
2017-06-27T11:29:26.364Z,21.22
2017-06-27T11:30:20.431Z,21.34
2017-06-27T11:31:20.740Z,21.36
2017-06-27T11:32:15.521Z,21.39
2017-06-27T11:33:09.592Z,21.42
2017-06-27T11:34:03.670Z,21.38
2017-06-27T11:34:57.693Z,21.38
2017-06-27T11:35:46.712Z,21.56
2017-06-27T11:36:34.823Z,21.40
2017-06-27T11:37:28.890Z,21.48
2017-06-27T11:38:22.937Z,21.66
2017-06-27T11:39:16.990Z,21.76
2017-06-27T11:40:11.094Z,21.95
2017-06-27T11:41:05.287Z,21.86
2017-06-27T11:41:59.104Z,21.61
2017-06-27T11:42:59.178Z,21.44
2017-06-27T11:43:59.305Z,21.34
2017-06-27T11:44:59.341Z,21.43
2017-06-27T11:45:53.330Z,21.44
2017-06-27T11:46:42.407Z,21.24
2017-06-27T11:47:42.434Z,21.06
2017-06-27T11:48:36.517Z,21.05
2017-06-27T11:49:30.852Z,21.02
2017-06-27T11:50:30.775Z,21.14
2017-06-27T11:51:24.775Z,21.06
2017-06-27T11:52:24.700Z,20.95
2017-06-27T11:53:13.792Z,21.00
2017-06-27T11:54:02.830Z,20.92
2017-06-27T11:54:50.883Z,20.76